Minnewana, Minnesota
Current Conditions -  °F | °C
As of 1:45 AM on Saturday 25 Oct 2014 (Local Time) from KHZX Reporting Station
Clear Clear  
Wind Chill: 54°   Ceiling: Unl
Heat Index: 54°   Visibility: 10mi
Dew Point: 34°   Wind: 6mph
Humidity: 47%   Direction: 270°W
Pressure: 29.87"   Gusts: NA
Location:  46.7232°N, 93.3159°W
Report Text: KHZX 250645Z AUTO 27005KT 10SM CLR 12/01 A2987 RMK AO2
Loading
Personal Weather Stations






























Interactive Weather Map
Tropical Storm Tracking
New forecast layout! Learn more

10-Day Weather Forecast

Advertisements
Track Severe Weather on mobile